Terminal Aerodrome Forecast
Issued by NWS Charleston, WV

Home | Current Version | Previous Version | Text Only | Print | Product List | Glossary On
Versions: 1 2 3 4 5 6 7 8 9 10 11 12 13 14 15 16 17 18 19 20 21 22 23 24 25
439
FTUS41 KRLX 300545
TAFPKB
TAF
KPKB 300545Z 3006/3106 19006KT P6SM SCT080 BKN250
     FM301100 21004KT P6SM BKN070
     FM301500 24004KT P6SM SCT080
     FM301800 25008G15KT P6SM FEW080
     FM302300 26006KT P6SM SCT080=

USA.gov is the U.S. government's official web portal to all federal, state and local government web resources and services.